createdAt,value
2022-10-18T00:00:59.314Z,101796.56
2022-10-18T00:03:27.546Z,101791.19
2022-10-18T00:05:57.274Z,101791.22
2022-10-18T00:08:25.548Z,101793.03
2022-10-18T00:10:53.869Z,101793.06
2022-10-18T00:13:22.172Z,101797.56
2022-10-18T00:15:51.402Z,101794.00
2022-10-18T00:18:19.814Z,101792.22
2022-10-18T00:20:57.090Z,101805.66
2022-10-18T00:23:26.733Z,101803.94
2022-10-18T00:26:06.781Z,101800.38
2022-10-18T00:28:35.978Z,101800.41
2022-10-18T00:31:15.166Z,101809.38
2022-10-18T00:33:43.863Z,101806.72
2022-10-18T00:36:12.403Z,101808.53
2022-10-18T00:38:42.057Z,101800.50
2022-10-18T00:41:13.999Z,101805.03
2022-10-18T00:43:56.446Z,101810.47
2022-10-18T00:46:25.637Z,101814.06
2022-10-18T00:51:31.986Z,101803.38
2022-10-18T00:54:01.476Z,101804.31
2022-10-18T00:56:29.840Z,101810.59
2022-10-18T00:58:58.533Z,101795.41
2022-10-18T01:01:28.380Z,101803.50
2022-10-18T01:03:57.167Z,101812.47
2022-10-18T01:06:26.059Z,101799.09
2022-10-18T01:09:11.072Z,101799.09
2022-10-18T01:11:52.773Z,101803.63
2022-10-18T01:14:47.578Z,101810.84
2022-10-18T01:17:20.864Z,101807.28
2022-10-18T01:20:08.650Z,101813.56
2022-10-18T01:22:40.537Z,101802.84
2022-10-18T01:25:21.142Z,101798.41
2022-10-18T01:27:58.042Z,101810.94
2022-10-18T01:30:41.986Z,101795.78
2022-10-18T01:33:21.402Z,101802.97
2022-10-18T01:35:55.140Z,101792.25
2022-10-18T01:38:25.900Z,101790.47
2022-10-18T01:40:55.796Z,101799.47
2022-10-18T01:43:25.332Z,101792.31
2022-10-18T01:45:56.258Z,101792.34
2022-10-18T01:48:24.195Z,101794.16
2022-10-18T01:50:53.619Z,101788.81
2022-10-18T01:53:30.943Z,101807.63
2022-10-18T01:56:13.864Z,101808.56
2022-10-18T01:58:50.710Z,101817.50
2022-10-18T02:01:30.348Z,101808.63
2022-10-18T02:04:08.105Z,101810.44
2022-10-18T02:06:44.116Z,101814.03
2022-10-18T02:09:17.422Z,101816.75
2022-10-18T02:11:47.486Z,101818.53
2022-10-18T02:14:18.864Z,101815.00
2022-10-18T02:16:52.038Z,101814.13
2022-10-18T02:19:26.686Z,101812.38
2022-10-18T02:21:56.201Z,101815.06
2022-10-18T02:24:28.115Z,101817.78
2022-10-18T02:26:56.100Z,101807.94
2022-10-18T02:29:24.012Z,101810.66
2022-10-18T02:32:03.500Z,101814.28
2022-10-18T02:34:36.851Z,101822.34
2022-10-18T02:37:06.001Z,101816.09
2022-10-18T02:39:36.922Z,101817.91
2022-10-18T02:42:07.997Z,101820.63
2022-10-18T02:44:36.536Z,101822.44
2022-10-18T02:47:07.521Z,101822.44
2022-10-18T02:49:35.308Z,101821.59
2022-10-18T02:52:03.189Z,101825.16
2022-10-18T02:54:30.957Z,101825.19
2022-10-18T02:56:58.762Z,101824.31
2022-10-18T02:59:26.618Z,101824.31
2022-10-18T03:01:54.414Z,101821.66
2022-10-18T03:04:23.764Z,101823.47
2022-10-18T03:06:51.591Z,101825.28
2022-10-18T03:09:19.344Z,101824.38
2022-10-18T03:11:47.130Z,101825.28
2022-10-18T03:14:15.096Z,101823.50
2022-10-18T03:16:43.088Z,101821.75
2022-10-18T03:19:10.986Z,101827.13
2022-10-18T03:21:40.215Z,101826.22
2022-10-18T03:24:08.183Z,101817.31
2022-10-18T03:26:36.399Z,101819.13
2022-10-18T03:29:04.879Z,101819.13
2022-10-18T03:31:33.800Z,101813.78
2022-10-18T03:34:02.044Z,101814.69
2022-10-18T03:36:29.874Z,101812.03
2022-10-18T03:38:59.044Z,101816.50
2022-10-18T03:41:26.874Z,101812.06
2022-10-18T03:43:54.687Z,101812.94
2022-10-18T03:46:22.520Z,101816.56
2022-10-18T03:48:50.370Z,101827.28
2022-10-18T03:51:18.257Z,101821.03
2022-10-18T03:53:46.084Z,101821.94
2022-10-18T03:56:15.284Z,101818.38
2022-10-18T03:58:43.091Z,101810.34
2022-10-18T04:01:10.950Z,101803.22
2022-10-18T04:03:38.718Z,101809.50
2022-10-18T04:06:07.952Z,101809.50
2022-10-18T04:08:35.769Z,101814.88
2022-10-18T04:11:08.295Z,101804.16
2022-10-18T04:13:37.886Z,101808.66
2022-10-18T04:16:06.043Z,101805.09
2022-10-18T04:18:33.886Z,101806.88
2022-10-18T04:21:01.725Z,101815.84
2022-10-18T04:23:29.884Z,101810.50
2022-10-18T04:25:58.765Z,101810.50
2022-10-18T04:28:26.636Z,101814.13
2022-10-18T04:30:55.896Z,101805.22
2022-10-18T04:33:23.769Z,101808.78
2022-10-18T04:35:53.100Z,101802.56
2022-10-18T04:38:21.292Z,101798.09
2022-10-18T04:40:49.137Z,101798.09
2022-10-18T04:43:17.480Z,101795.44
2022-10-18T04:45:46.154Z,101782.94
2022-10-18T04:48:15.567Z,101788.31
2022-10-18T04:50:43.498Z,101779.41
2022-10-18T04:53:15.588Z,101775.78
2022-10-18T04:55:45.234Z,101775.78
2022-10-18T04:58:13.320Z,101775.78
2022-10-18T05:00:41.436Z,101771.38
2022-10-18T05:03:09.344Z,101769.56
2022-10-18T05:06:00.139Z,101766.03
2022-10-18T05:08:26.467Z,101772.31
2022-10-18T05:10:54.389Z,101766.97
2022-10-18T05:13:22.403Z,101760.69
2022-10-18T05:15:50.243Z,101751.78
2022-10-18T05:18:18.179Z,101754.47
2022-10-18T05:20:47.901Z,101753.59
2022-10-18T05:23:15.736Z,101745.56
2022-10-18T05:25:44.032Z,101749.19
2022-10-18T05:28:34.567Z,101744.72
2022-10-18T05:31:02.755Z,101751.88
2022-10-18T05:33:30.936Z,101748.31
2022-10-18T05:36:00.613Z,101752.75
2022-10-18T05:38:30.942Z,101764.41
2022-10-18T05:40:59.175Z,101762.63
2022-10-18T05:43:29.686Z,101764.44
2022-10-18T05:45:57.863Z,101768.03
2022-10-18T05:48:26.622Z,101766.28
2022-10-18T05:50:54.553Z,101766.28
2022-10-18T05:53:36.334Z,101779.69
2022-10-18T05:56:05.796Z,101793.06
2022-10-18T05:58:33.684Z,101803.75
2022-10-18T06:01:02.347Z,101801.09
2022-10-18T06:03:31.223Z,101803.78
2022-10-18T06:06:02.657Z,101818.03
2022-10-18T06:08:32.556Z,101815.38
2022-10-18T06:11:00.654Z,101817.16
2022-10-18T06:13:31.128Z,101811.81
2022-10-18T06:16:00.509Z,101817.19
2022-10-18T06:18:30.125Z,101821.66
2022-10-18T06:20:59.080Z,101813.63
2022-10-18T06:23:27.265Z,101818.97
2022-10-18T06:25:59.755Z,101816.28
2022-10-18T06:28:28.061Z,101813.63
2022-10-18T06:30:56.008Z,101816.31
2022-10-18T06:33:24.090Z,101812.75
2022-10-18T06:35:56.929Z,101820.78
2022-10-18T06:38:25.114Z,101814.53
2022-10-18T06:40:53.272Z,101802.94
2022-10-18T06:43:22.942Z,101796.69
2022-10-18T06:45:51.397Z,101810.97
2022-10-18T06:50:54.627Z,101810.97
2022-10-18T06:53:22.616Z,101815.44
2022-10-18T06:55:50.544Z,101815.44
2022-10-18T06:58:19.300Z,101818.09
2022-10-18T07:00:48.504Z,101826.13
2022-10-18T07:03:16.788Z,101816.31
2022-10-18T07:05:46.373Z,101823.44
2022-10-18T07:08:14.535Z,101831.47
2022-10-18T07:10:42.476Z,101835.94
2022-10-18T07:16:10.638Z,101828.84
2022-10-18T07:18:42.396Z,101830.63
2022-10-18T07:21:13.215Z,101829.72
2022-10-18T07:23:43.186Z,101843.09
2022-10-18T07:26:14.561Z,101846.66
2022-10-18T07:28:42.692Z,101839.56
2022-10-18T07:31:12.997Z,101844.91
2022-10-18T07:33:43.147Z,101839.56
2022-10-18T07:36:13.070Z,101844.03
2022-10-18T07:38:41.592Z,101846.69
2022-10-18T07:41:11.441Z,101852.00
2022-10-18T07:43:43.075Z,101844.00
2022-10-18T07:46:12.970Z,101845.78
2022-10-18T07:48:41.208Z,101858.28
2022-10-18T07:51:09.179Z,101855.59
2022-10-18T07:53:37.408Z,101852.94
2022-10-18T07:56:09.643Z,101856.47
2022-10-18T07:58:38.085Z,101856.47
2022-10-18T08:01:07.254Z,101874.34
2022-10-18T08:03:38.260Z,101866.31
2022-10-18T08:06:09.039Z,101864.50
2022-10-18T08:08:38.213Z,101865.44
2022-10-18T08:11:08.249Z,101859.16
2022-10-18T08:13:36.103Z,101859.16
2022-10-18T08:16:06.018Z,101860.06
2022-10-18T08:18:34.211Z,101852.94
2022-10-18T08:21:05.357Z,101855.59
2022-10-18T08:23:33.461Z,101855.59
2022-10-18T08:26:02.967Z,101851.13
2022-10-18T08:28:30.949Z,101852.94
2022-10-18T08:30:59.083Z,101859.16
2022-10-18T08:33:29.191Z,101854.72
2022-10-18T08:35:57.099Z,101854.72
2022-10-18T08:38:26.473Z,101853.81
2022-10-18T08:40:54.344Z,101859.16
2022-10-18T08:43:32.784Z,101855.59
2022-10-18T08:46:01.605Z,101864.50
2022-10-18T08:48:36.848Z,101867.19
2022-10-18T08:51:07.862Z,101865.44
2022-10-18T08:53:49.231Z,101864.50
2022-10-18T08:56:21.661Z,101866.31
2022-10-18T08:58:49.781Z,101858.28
2022-10-18T09:01:27.690Z,101859.16
2022-10-18T09:04:13.940Z,101859.16
2022-10-18T09:06:49.087Z,101852.00
2022-10-18T09:09:30.856Z,101851.09
2022-10-18T09:12:08.226Z,101852.88
2022-10-18T09:15:04.795Z,101849.31
2022-10-18T09:17:42.268Z,101851.09
2022-10-18T09:20:25.460Z,101847.53
2022-10-18T09:22:56.162Z,101845.72
2022-10-18T09:25:30.821Z,101835.03
2022-10-18T09:28:15.404Z,101837.69
2022-10-18T09:30:50.718Z,101835.91
2022-10-18T09:33:31.176Z,101833.22
2022-10-18T09:36:01.733Z,101826.97
2022-10-18T09:38:33.368Z,101829.63
2022-10-18T09:41:09.617Z,101835.84
2022-10-18T09:43:48.548Z,101826.91
2022-10-18T09:46:19.139Z,101828.66
2022-10-18T09:48:50.573Z,101830.41
2022-10-18T09:51:22.658Z,101830.38
2022-10-18T09:54:04.483Z,101833.94
2022-10-18T09:56:41.735Z,101837.47
2022-10-18T09:59:28.492Z,101845.47
2022-10-18T10:01:56.660Z,101841.00
2022-10-18T10:04:24.580Z,101847.25
2022-10-18T10:06:53.706Z,101847.22
2022-10-18T10:09:29.397Z,101848.09
2022-10-18T10:11:59.441Z,101846.28
2022-10-18T10:14:30.397Z,101853.44
2022-10-18T10:17:02.250Z,101856.09
2022-10-18T10:19:33.917Z,101857.00
2022-10-18T10:22:06.545Z,101858.75
2022-10-18T10:24:44.222Z,101858.72
2022-10-18T10:27:20.940Z,101860.50
2022-10-18T10:29:56.616Z,101857.78
2022-10-18T10:32:31.064Z,101860.44
2022-10-18T10:34:59.658Z,101855.06
2022-10-18T10:37:33.591Z,101859.53
2022-10-18T10:40:23.119Z,101856.81
2022-10-18T10:43:12.735Z,101856.78
2022-10-18T10:46:00.886Z,101859.44
2022-10-18T10:48:33.218Z,101854.06
2022-10-18T10:51:05.507Z,101850.44
2022-10-18T10:53:51.294Z,101851.28
2022-10-18T10:56:24.689Z,101857.50
2022-10-18T10:58:55.367Z,101858.34
2022-10-18T11:01:30.413Z,101859.22
2022-10-18T11:04:00.764Z,101856.53
2022-10-18T11:06:47.320Z,101860.06
2022-10-18T11:09:35.017Z,101856.47
2022-10-18T11:12:13.002Z,101858.22
2022-10-18T11:14:45.899Z,101867.19
2022-10-18T11:17:23.016Z,101860.03
2022-10-18T11:20:03.591Z,101852.84
2022-10-18T11:22:37.283Z,101860.88
2022-10-18T11:25:05.882Z,101860.00
2022-10-18T11:27:41.705Z,101857.34
2022-10-18T11:30:33.616Z,101853.78
2022-10-18T11:33:12.814Z,101852.84
2022-10-18T11:35:47.233Z,101851.94
2022-10-18T11:38:31.022Z,101842.09
2022-10-18T11:41:19.370Z,101842.09
2022-10-18T11:44:08.725Z,101840.25
2022-10-18T11:46:50.667Z,101845.59
2022-10-18T11:49:48.365Z,101828.56
2022-10-18T11:52:24.524Z,101838.38
2022-10-18T11:55:13.422Z,101842.78
2022-10-18T11:57:47.445Z,101844.56
2022-10-18T12:03:32.368Z,101849.94
2022-10-18T12:06:05.194Z,101842.75
2022-10-18T12:08:37.446Z,101844.50
2022-10-18T12:11:12.558Z,101827.44
2022-10-18T12:13:45.901Z,101818.50
2022-10-18T12:16:13.912Z,101828.25
2022-10-18T12:21:25.784Z,101823.59
2022-10-18T12:23:57.541Z,101820.81
2022-10-18T12:26:28.243Z,101824.41
2022-10-18T12:29:09.561Z,101822.59
2022-10-18T12:31:43.653Z,101827.03
2022-10-18T12:34:29.328Z,101825.31
2022-10-18T12:37:17.217Z,101814.63
2022-10-18T12:40:08.948Z,101821.81
2022-10-18T12:42:44.708Z,101812.03
2022-10-18T12:45:27.474Z,101810.22
2022-10-18T12:47:59.894Z,101812.88
2022-10-18T12:50:35.119Z,101810.03
2022-10-18T12:53:08.073Z,101814.44
2022-10-18T12:55:38.618Z,101812.66
2022-10-18T12:58:24.821Z,101817.09
2022-10-18T13:00:57.406Z,101800.06
2022-10-18T13:04:00.663Z,101814.31
2022-10-18T13:07:12.436Z,101802.59
2022-10-18T13:09:44.531Z,101811.47
2022-10-18T13:12:51.183Z,101815.00
2022-10-18T13:15:37.671Z,101813.16
2022-10-18T13:18:17.930Z,101806.94
2022-10-18T13:20:57.000Z,101807.91
2022-10-18T13:23:38.449Z,101813.28
2022-10-18T13:26:19.903Z,101814.19
2022-10-18T13:28:57.997Z,101816.88
2022-10-18T13:31:32.016Z,101812.38
2022-10-18T13:34:18.897Z,101818.69
2022-10-18T13:36:58.082Z,101819.59
2022-10-18T13:39:27.192Z,101815.19
2022-10-18T13:42:30.069Z,101820.59
2022-10-18T13:45:31.364Z,101819.59
2022-10-18T13:48:19.201Z,101823.19
2022-10-18T13:50:48.632Z,101824.00
2022-10-18T13:53:38.941Z,101826.50
2022-10-18T13:56:34.554Z,101827.19
2022-10-18T13:59:19.011Z,101829.66
2022-10-18T14:01:58.373Z,101828.63
2022-10-18T14:04:43.558Z,101821.31
2022-10-18T14:07:21.816Z,101823.13
2022-10-18T14:09:56.919Z,101824.84
2022-10-18T14:12:36.212Z,101826.59
2022-10-18T14:15:11.257Z,101823.16
2022-10-18T14:17:44.106Z,101829.38
2022-10-18T14:20:23.783Z,101827.66
2022-10-18T14:22:58.683Z,101828.63
2022-10-18T14:25:30.535Z,101830.59
2022-10-18T14:28:12.495Z,101820.88
2022-10-18T14:30:55.082Z,101825.44
2022-10-18T14:33:32.772Z,101828.13
2022-10-18T14:36:04.574Z,101831.78
2022-10-18T14:38:32.571Z,101828.28
2022-10-18T14:41:12.917Z,101837.28
2022-10-18T14:43:40.924Z,101844.53
2022-10-18T14:46:26.621Z,101848.25
2022-10-18T14:48:56.630Z,101836.69
2022-10-18T14:51:25.245Z,101847.50
2022-10-18T14:53:54.026Z,101847.53
2022-10-18T14:56:26.591Z,101851.94
2022-10-18T14:58:55.687Z,101853.75
2022-10-18T15:01:28.814Z,101843.94
2022-10-18T15:03:58.749Z,101852.03
2022-10-18T15:06:27.656Z,101848.47
2022-10-18T15:08:58.594Z,101853.84
2022-10-18T15:11:28.187Z,101852.13
2022-10-18T15:13:59.231Z,101852.19
2022-10-18T15:16:31.631Z,101844.19
2022-10-18T15:19:05.362Z,101860.34
2022-10-18T15:21:34.340Z,101852.34
2022-10-18T15:24:27.730Z,101853.31
2022-10-18T15:26:58.930Z,101853.38
2022-10-18T15:29:28.052Z,101864.13
2022-10-18T15:32:05.341Z,101864.16
2022-10-18T15:34:33.300Z,101860.66
2022-10-18T15:37:16.085Z,101862.50
2022-10-18T15:39:44.432Z,101861.69
2022-10-18T15:42:37.486Z,101856.41
2022-10-18T15:45:30.769Z,101854.69
2022-10-18T15:48:03.063Z,101861.88
2022-10-18T15:50:42.682Z,101861.97
2022-10-18T15:53:33.506Z,101859.34
2022-10-18T15:56:03.830Z,101856.72
2022-10-18T15:58:40.158Z,101861.25
2022-10-18T16:01:15.706Z,101856.81
2022-10-18T16:03:46.592Z,101856.00
2022-10-18T16:06:18.223Z,101864.97
2022-10-18T16:08:50.099Z,101862.34
2022-10-18T16:11:20.585Z,101857.94
2022-10-18T16:13:49.003Z,101863.28
2022-10-18T16:16:20.349Z,101860.69
2022-10-18T16:18:50.023Z,101866.94
2022-10-18T16:21:20.659Z,101865.19
2022-10-18T16:23:48.855Z,101864.34
2022-10-18T16:26:18.054Z,101867.06
2022-10-18T16:28:46.391Z,101865.31
2022-10-18T16:31:18.368Z,101867.13
2022-10-18T16:33:47.015Z,101872.50
2022-10-18T16:36:17.796Z,101882.31
2022-10-18T16:38:46.872Z,101877.00
2022-10-18T16:41:15.885Z,101877.00
2022-10-18T16:43:44.996Z,101887.75
2022-10-18T16:46:17.263Z,101886.84
2022-10-18T16:48:45.834Z,101890.44
2022-10-18T16:51:13.961Z,101888.63
2022-10-18T16:53:44.053Z,101893.09
2022-10-18T16:56:15.828Z,101893.97
2022-10-18T16:58:44.621Z,101902.00
2022-10-18T17:01:13.724Z,101895.75
2022-10-18T17:03:42.078Z,101897.53
2022-10-18T17:06:16.103Z,101901.09
2022-10-18T17:08:45.846Z,101902.88
2022-10-18T17:11:15.457Z,101901.09
2022-10-18T17:13:43.922Z,101902.84
2022-10-18T17:16:22.946Z,101904.63
2022-10-18T17:18:51.463Z,101901.91
2022-10-18T17:21:19.344Z,101904.56
2022-10-18T17:23:48.665Z,101913.47
2022-10-18T17:26:34.033Z,101917.88
2022-10-18T17:29:05.484Z,101909.81
2022-10-18T17:31:33.991Z,101911.56
2022-10-18T17:34:02.385Z,101923.13
2022-10-18T17:36:30.737Z,101913.31
2022-10-18T17:39:00.247Z,101924.81
2022-10-18T17:41:28.371Z,101925.66
2022-10-18T17:43:56.587Z,101930.06
2022-10-18T17:46:24.655Z,101928.25
2022-10-18T17:48:52.640Z,101931.78
2022-10-18T17:51:20.556Z,101927.28
2022-10-18T17:53:48.458Z,101923.72
2022-10-18T17:56:17.914Z,101931.69
2022-10-18T17:58:46.973Z,101936.94
2022-10-18T18:01:16.741Z,101935.13
2022-10-18T18:03:44.749Z,101933.34
2022-10-18T18:06:14.920Z,101935.94
2022-10-18T18:08:42.774Z,101939.47
2022-10-18T18:11:10.949Z,101939.41
2022-10-18T18:13:40.169Z,101948.22
2022-10-18T18:16:13.210Z,101948.19
2022-10-18T18:18:41.262Z,101953.47
2022-10-18T18:21:09.628Z,101959.66
2022-10-18T18:23:37.510Z,101956.06
2022-10-18T18:26:05.960Z,101959.56
2022-10-18T18:28:34.561Z,101966.66
2022-10-18T18:31:07.987Z,101970.16
2022-10-18T18:33:36.362Z,101963.03
2022-10-18T18:36:06.704Z,101960.34
2022-10-18T18:38:36.035Z,101967.41
2022-10-18T18:41:05.774Z,101956.69
2022-10-18T18:43:33.676Z,101961.94
2022-10-18T18:46:01.567Z,101963.69
2022-10-18T18:48:33.901Z,101968.97
2022-10-18T18:51:01.766Z,101973.31
2022-10-18T18:53:30.146Z,101970.59
2022-10-18T18:56:02.835Z,101978.53
2022-10-18T18:58:30.753Z,101988.22
2022-10-18T19:00:58.756Z,101986.41
2022-10-18T19:03:26.660Z,101978.41
2022-10-18T19:06:05.690Z,101980.16
2022-10-18T19:08:35.530Z,101976.56
2022-10-18T19:11:06.853Z,101991.66
2022-10-18T19:13:37.037Z,101984.50
2022-10-18T19:16:18.341Z,101965.88
2022-10-18T19:18:51.598Z,101964.06
2022-10-18T19:21:21.458Z,101966.72
2022-10-18T19:23:50.259Z,101968.44
2022-10-18T19:26:31.058Z,101965.75
2022-10-18T19:29:04.007Z,101971.94
2022-10-18T19:31:31.932Z,101971.91
2022-10-18T19:34:00.063Z,101986.03
2022-10-18T19:36:30.125Z,101984.22
2022-10-18T19:38:58.597Z,101988.63
2022-10-18T19:41:28.732Z,101988.59
2022-10-18T19:43:57.019Z,101988.53
2022-10-18T19:46:25.251Z,101993.81
2022-10-18T19:48:54.234Z,101989.38
2022-10-18T19:51:27.708Z,101992.88
2022-10-18T19:53:58.136Z,101991.06
2022-10-18T19:56:27.963Z,101989.25
2022-10-18T19:58:56.719Z,101991.84
2022-10-18T20:01:25.407Z,102001.56
2022-10-18T20:03:53.348Z,102005.94
2022-10-18T20:06:21.287Z,102012.09
2022-10-18T20:08:49.296Z,102012.06
2022-10-18T20:11:20.695Z,102014.69
2022-10-18T20:13:48.702Z,102011.09
2022-10-18T20:16:18.228Z,102019.00
2022-10-18T20:18:46.563Z,102016.25
2022-10-18T20:21:16.658Z,102016.19
2022-10-18T20:23:45.310Z,102016.16
2022-10-18T20:26:18.081Z,102017.84
2022-10-18T20:28:55.916Z,102020.44
2022-10-18T20:31:25.231Z,102029.22
2022-10-18T20:33:56.042Z,102030.94
2022-10-18T20:36:24.503Z,102021.13
2022-10-18T20:38:53.282Z,102031.72
2022-10-18T20:41:22.911Z,102034.31
2022-10-18T20:43:56.724Z,102036.03
2022-10-18T20:46:24.935Z,102037.75
2022-10-18T20:48:53.670Z,102035.88
2022-10-18T20:51:22.395Z,102042.00
2022-10-18T20:53:51.360Z,102038.41
2022-10-18T20:56:21.162Z,102037.47
2022-10-18T20:58:50.284Z,102037.38
2022-10-18T21:01:22.060Z,102025.78
2022-10-18T21:03:51.632Z,102032.84
2022-10-18T21:06:21.453Z,102025.66
2022-10-18T21:08:53.869Z,102026.50
2022-10-18T21:11:22.039Z,102029.13
2022-10-18T21:13:53.715Z,102035.25
2022-10-18T21:16:23.405Z,102032.53
2022-10-18T21:18:51.568Z,102028.94
2022-10-18T21:21:23.303Z,102025.31
2022-10-18T21:23:52.004Z,102030.59
2022-10-18T21:26:22.462Z,102026.09
2022-10-18T21:28:51.454Z,102021.63
2022-10-18T21:31:22.886Z,102019.81
2022-10-18T21:33:54.274Z,102018.91
2022-10-18T21:36:22.669Z,102019.69
2022-10-18T21:38:50.828Z,102024.09
2022-10-18T21:41:20.278Z,102018.66
2022-10-18T21:43:50.123Z,102012.44
2022-10-18T21:46:19.904Z,102016.81
2022-10-18T21:48:50.529Z,102019.41
2022-10-18T21:51:20.842Z,102017.56
2022-10-18T21:53:50.603Z,102015.72
2022-10-18T21:56:20.205Z,102013.91
2022-10-18T21:58:48.571Z,102008.56
2022-10-18T22:01:18.524Z,102012.97
2022-10-18T22:03:48.824Z,102018.19
2022-10-18T22:06:18.693Z,102015.47
2022-10-18T22:08:50.033Z,102013.66
2022-10-18T22:11:18.830Z,102025.97
2022-10-18T22:13:47.375Z,102020.63
2022-10-18T22:16:16.777Z,102020.53
2022-10-18T22:18:45.707Z,102013.41
2022-10-18T22:21:14.770Z,102020.44
2022-10-18T22:23:45.873Z,102017.69
2022-10-18T22:26:15.650Z,102015.88
2022-10-18T22:28:45.269Z,102006.09
2022-10-18T22:31:17.392Z,102014.00
2022-10-18T22:33:45.392Z,102006.81
2022-10-18T22:36:13.417Z,102017.38
2022-10-18T22:38:41.402Z,102008.50
2022-10-18T22:41:12.456Z,102008.47
2022-10-18T22:43:41.116Z,102010.16
2022-10-18T22:46:10.964Z,102010.97
2022-10-18T22:48:39.370Z,102002.13
2022-10-18T22:51:07.635Z,101997.69
2022-10-18T22:53:36.526Z,102002.03
2022-10-18T22:56:05.967Z,101994.97
2022-10-18T22:58:35.159Z,101999.34
2022-10-18T23:01:04.409Z,101991.34
2022-10-18T23:03:32.254Z,101991.31
2022-10-18T23:06:00.412Z,101996.59
2022-10-18T23:08:28.362Z,101998.34
2022-10-18T23:10:57.933Z,102000.94
2022-10-18T23:13:27.149Z,102000.91
2022-10-18T23:16:04.443Z,102003.53
2022-10-18T23:18:33.597Z,101996.41
2022-10-18T23:21:03.068Z,102004.38
2022-10-18T23:23:34.789Z,102002.59
2022-10-18T23:26:04.345Z,102017.56
2022-10-18T23:28:34.939Z,102011.31
2022-10-18T23:31:08.555Z,102015.75
2022-10-18T23:33:36.509Z,102012.22
2022-10-18T23:36:04.889Z,102015.69
2022-10-18T23:38:33.309Z,102021.81
2022-10-18T23:41:01.528Z,102020.84
2022-10-18T23:43:29.496Z,102013.78
2022-10-18T23:45:57.249Z,102017.25
2022-10-18T23:48:26.647Z,102012.78
2022-10-18T23:50:54.453Z,102009.19
2022-10-18T23:53:22.609Z,101999.38
2022-10-18T23:55:53.911Z,102005.53
2022-10-18T23:58:22.000Z,102003.72
